Impacts METAR Board
IDs:

KORD - Chicago/O'Hare Intl, IL, US

Updated at: 2200 UTC 02 Oct 2022
Potential Impact None Slight Moderate High
Time 02/10Z 02/11Z 02/12Z 02/13Z 02/14Z 02/15Z 02/16Z 02/17Z 02/18Z 02/19Z 02/20Z 02/21Z 02/22Z
Temp57 56 58 59 60 61 62 62 63 64 65 63 62
Dewpt52 53 53 54 53 52 52 52 52 50 49 48 48
Altim30.27 30.29 30.30 30.32 30.33 30.36 30.37 30.38 30.38 30.36 30.35 30.34 30.34
VIS10 10 10 10 10 10 10 10 10 10 10 10 10
CIG-- 13 14 16 17 22 23 18 20 -- -- -- --
CoverFEWBKNBKNBKNBKNBKNBKNBKNBKNFEWFEWFEWFEW
FltCatVFRMVFRMVFRMVFRMVFRMVFRMVFRMVFRMVFRVFRVFRVFRVFR
WX--------------------------
WDir60407060607050301020503040
WSpd5 5 7 6 8 11 11 12 13 15 14 13 13
WGst-- -- -- -- -- -- -- -- -- 21 -- -- --
Raw hourly METARs
KORD 020951Z 06005KT 10SM FEW170 14/11 A3027 RMK AO2 SLP249 T01390111
KORD 021051Z 04005KT 10SM BKN013 13/12 A3029 RMK AO2 SLP256 T01330117
KORD 021151Z 07007KT 10SM BKN014 BKN200 14/12 A3030 RMK AO2 SLP261 T01440117 10144 20111 53013
KORD 021251Z 06006KT 10SM FEW013 BKN016 BKN200 15/12 A3032 RMK AO2 SLP269 CIG 014V019 T01500122
KORD 021351Z 06008KT 10SM FEW014 BKN017 16/12 A3033 RMK AO2 SLP271 CIG 015V020 T01560117
KORD 021451Z 07011KT 10SM FEW017 BKN022 16/11 A3036 RMK AO2 SLP279 T01610111 53010
KORD 021551Z 05011KT 10SM SCT018 BKN023 17/11 A3037 RMK AO2 SLP286 T01670111
KORD 021651Z 03012KT 10SM BKN018 BKN023 17/11 A3038 RMK AO2 SLP288 T01670111
KORD 021751Z 01013KT 10SM BKN020 17/11 A3038 RMK AO2 SLP288 T01720111 10178 20144 50009
KORD 021851Z 02015G21KT 10SM FEW021 18/10 A3036 RMK AO2 SLP280 T01780100
KORD 021951Z 05014KT 10SM FEW021 18/09 A3035 RMK AO2 SLP276 T01830094
KORD 022051Z 03013KT 10SM FEW021 17/09 A3034 RMK AO2 SLP275 T01720089 56013
KORD 022151Z 04013KT 10SM FEW021 17/09 A3034 RMK AO2 SLP275 T01670089



Page loaded:  22:23 UTC  |   03:23 PM Pacific  |   04:23 PM Mountain  |   05:23 PM Central  |   06:23 PM Eastern

 

ADVISORIES

FORECASTS

FORECASTS

OBSERVATIONS

USER TOOLS

ABOUT US